Ext Vistas de Luquillo, Puerto Rico
Current Conditions -  °F | °C
As of 3:53 AM on Monday 22 Dec 2014 (Local Time) from TJNR Reporting Station
Light Rain Light Rain  
Wind Chill: 75°   Ceiling: 2300
Heat Index: 75°   Visibility: 10mi
Dew Point: 70°   Wind: 6mph
Humidity: 84%   Direction: 340°NNW
Pressure: 30.03"   Gusts: NA
Location:  18.3744°N, 65.7168°W
Report Text: TJNR 220753Z AUTO 34005KT 10SM -RA BKN023 BKN030 OVC039 24/21 A3003 RMK AO2 RAB46 SLP169 P0000 T02390211 $
Loading
Personal Weather Stations






























Interactive Weather Map New forecast layout! Learn more

10-Day Weather Forecast

Advertisements
Track Severe Weather on mobile